Other Surface Observations
Issued by NWS Great Falls, MT

Home | Current Version | Previous Version | Text Only | Print | Product List | Glossary On
Versions: 1 2 3 4 5 6 7 8 9 10 11 12 13 14 15 16 17 18 19 20 21 22 23 24 25 26 27 28 29 30 31 32 33 34 35 36 37 38 39 40 41 42 43 44 45 46 47 48 49 50
000
SXUS55 KTFX 241329
OSOTFX
AREA AWOS OBSERVATIONS
NATIONAL WEATHER SERVICE GREAT FALLS MT
0729 AM MDT SUN JUL 24 2016

METAR KPWD 241330Z AUTO 29004KT 7SM 14/12 A3004 RMK PLENTYWOOD
METAR KPO1 241330Z AUTO 00000KT 10SM 15/11 A3006 RMK POPLAR
METAR K1S3 241330Z AUTO 00000KT 10SM 19/11 A3007 RMK FORSYTH
METAR KS71 241330Z AUTO 27004KT 10SM 14/12 A3005 RMK CHINOOK
METAR K38S 241330Z AUTO 00000KT 10SM 09/04 A3026 RMK DEER LODGE
METAR K3U3 241330Z AUTO 00000KT 10SM 11/03 A3023 RMK ANACONDA
METAR K6S5 241330Z AUTO 00000KT 10SM 12/05 A3020 RMK HAMILTON
METAR KS59 241330Z AUTO 00000KT 10SM 08/06 A3017 RMK LIBBY
METAR K88M 241330Z AUTO 00000KT 10SM 12/08 A3016 RMK EUREKA



USA.gov is the U.S. government's official web portal to all federal, state and local government web resources and services.